sensor_id;sensor_type;location;lat;lon;timestamp;pressure;altitude;pressure_sealevel;temperature;humidity
8334;BME280;4204;43.004;23.052;2023-10-31T00:00:32;94027.44;;;9.77;100.00
8334;BME280;4204;43.004;23.052;2023-10-31T00:03:00;94029.25;;;9.68;100.00
8334;BME280;4204;43.004;23.052;2023-10-31T00:05:29;94021.72;;;9.62;100.00
8334;BME280;4204;43.004;23.052;2023-10-31T00:07:56;94019.09;;;9.70;100.00
8334;BME280;4204;43.004;23.052;2023-10-31T00:10:24;94009.94;;;9.76;100.00
8334;BME280;4204;43.004;23.052;2023-10-31T00:12:52;94012.34;;;9.87;100.00
8334;BME280;4204;43.004;23.052;2023-10-31T00:15:20;94006.44;;;9.67;100.00
8334;BME280;4204;43.004;23.052;2023-10-31T00:17:47;93993.03;;;9.72;100.00
8334;BME280;4204;43.004;23.052;2023-10-31T00:20:15;93997.09;;;9.70;100.00
8334;BME280;4204;43.004;23.052;2023-10-31T00:22:44;93971.91;;;9.67;100.00
8334;BME280;4204;43.004;23.052;2023-10-31T00:25:12;94002.16;;;9.80;100.00
8334;BME280;4204;43.004;23.052;2023-10-31T00:27:40;94000.63;;;9.88;100.00
8334;BME280;4204;43.004;23.052;2023-10-31T00:30:08;93986.09;;;9.63;100.00
8334;BME280;4204;43.004;23.052;2023-10-31T00:32:36;93982.19;;;9.83;100.00
8334;BME280;4204;43.004;23.052;2023-10-31T00:35:04;93987.38;;;9.65;100.00
8334;BME280;4204;43.004;23.052;2023-10-31T00:37:32;93990.13;;;9.60;100.00
8334;BME280;4204;43.004;23.052;2023-10-31T00:40:01;93989.41;;;9.46;100.00
8334;BME280;4204;43.004;23.052;2023-10-31T00:42:29;93979.59;;;9.47;100.00
8334;BME280;4204;43.004;23.052;2023-10-31T00:44:56;93985.25;;;9.54;100.00
8334;BME280;4204;43.004;23.052;2023-10-31T00:47:24;93976.84;;;9.60;100.00
8334;BME280;4204;43.004;23.052;2023-10-31T00:49:52;93969.69;;;9.61;100.00
8334;BME280;4204;43.004;23.052;2023-10-31T00:52:20;93969.38;;;9.62;100.00
8334;BME280;4204;43.004;23.052;2023-10-31T00:54:49;93960.91;;;9.60;100.00
8334;BME280;4204;43.004;23.052;2023-10-31T00:57:18;93958.97;;;9.74;100.00
8334;BME280;4204;43.004;23.052;2023-10-31T00:59:45;93960.97;;;9.69;100.00
8334;BME280;4204;43.004;23.052;2023-10-31T01:02:13;93962.16;;;9.85;100.00
8334;BME280;4204;43.004;23.052;2023-10-31T01:04:41;93964.69;;;9.59;100.00
8334;BME280;4204;43.004;23.052;2023-10-31T01:07:09;93970.16;;;9.41;100.00
8334;BME280;4204;43.004;23.052;2023-10-31T01:09:38;93960.78;;;9.21;100.00
8334;BME280;4204;43.004;23.052;2023-10-31T01:12:06;93955.97;;;9.23;100.00
8334;BME280;4204;43.004;23.052;2023-10-31T01:14:35;93952.47;;;9.36;100.00
8334;BME280;4204;43.004;23.052;2023-10-31T01:17:04;93961.16;;;9.28;100.00
8334;BME280;4204;43.004;23.052;2023-10-31T01:19:32;93960.22;;;9.46;100.00
8334;BME280;4204;43.004;23.052;2023-10-31T01:21:59;93948.56;;;9.34;100.00
8334;BME280;4204;43.004;23.052;2023-10-31T01:24:27;93944.88;;;9.21;100.00
8334;BME280;4204;43.004;23.052;2023-10-31T01:26:55;93947.97;;;9.37;100.00
8334;BME280;4204;43.004;23.052;2023-10-31T01:29:22;93947.53;;;9.21;100.00
8334;BME280;4204;43.004;23.052;2023-10-31T01:31:51;93941.97;;;9.31;100.00
8334;BME280;4204;43.004;23.052;2023-10-31T01:34:19;93941.97;;;9.09;100.00
8334;BME280;4204;43.004;23.052;2023-10-31T01:36:47;93934.06;;;9.18;100.00
8334;BME280;4204;43.004;23.052;2023-10-31T01:39:14;93936.16;;;9.21;100.00
8334;BME280;4204;43.004;23.052;2023-10-31T01:41:42;93919.44;;;9.20;100.00
8334;BME280;4204;43.004;23.052;2023-10-31T01:44:10;93934.47;;;9.25;100.00
8334;BME280;4204;43.004;23.052;2023-10-31T01:46:38;93933.97;;;9.45;100.00
8334;BME280;4204;43.004;23.052;2023-10-31T01:49:07;93937.53;;;9.40;100.00
8334;BME280;4204;43.004;23.052;2023-10-31T01:51:35;93932.69;;;9.20;100.00
8334;BME280;4204;43.004;23.052;2023-10-31T01:54:03;93928.94;;;9.21;100.00
8334;BME280;4204;43.004;23.052;2023-10-31T01:56:31;93929.81;;;9.08;100.00
8334;BME280;4204;43.004;23.052;2023-10-31T01:58:59;93926.19;;;9.04;100.00
8334;BME280;4204;43.004;23.052;2023-10-31T02:01:27;93927.38;;;9.20;100.00
8334;BME280;4204;43.004;23.052;2023-10-31T02:03:55;93925.81;;;9.19;100.00
8334;BME280;4204;43.004;23.052;2023-10-31T02:06:24;93930.03;;;9.20;100.00
8334;BME280;4204;43.004;23.052;2023-10-31T02:08:53;93930.00;;;8.98;100.00
8334;BME280;4204;43.004;23.052;2023-10-31T02:11:22;93915.97;;;8.98;100.00
8334;BME280;4204;43.004;23.052;2023-10-31T02:13:50;93925.50;;;8.98;100.00
8334;BME280;4204;43.004;23.052;2023-10-31T02:16:18;93920.59;;;8.92;100.00
8334;BME280;4204;43.004;23.052;2023-10-31T02:18:45;93919.03;;;8.91;100.00
8334;BME280;4204;43.004;23.052;2023-10-31T02:21:13;93918.66;;;8.84;100.00
8334;BME280;4204;43.004;23.052;2023-10-31T02:23:42;93920.41;;;8.88;100.00
8334;BME280;4204;43.004;23.052;2023-10-31T02:26:10;93920.91;;;8.90;100.00
8334;BME280;4204;43.004;23.052;2023-10-31T02:28:37;93915.19;;;8.97;100.00
8334;BME280;4204;43.004;23.052;2023-10-31T02:31:05;93923.44;;;8.95;100.00
8334;BME280;4204;43.004;23.052;2023-10-31T02:33:33;93917.50;;;8.76;100.00
8334;BME280;4204;43.004;23.052;2023-10-31T02:36:00;93914.19;;;8.71;100.00
8334;BME280;4204;43.004;23.052;2023-10-31T02:38:29;93919.50;;;8.57;100.00
8334;BME280;4204;43.004;23.052;2023-10-31T02:40:58;93911.94;;;8.64;100.00
8334;BME280;4204;43.004;23.052;2023-10-31T02:43:26;93920.97;;;8.63;100.00
8334;BME280;4204;43.004;23.052;2023-10-31T02:45:54;93913.56;;;8.74;100.00
8334;BME280;4204;43.004;23.052;2023-10-31T02:48:23;93923.06;;;8.88;100.00
8334;BME280;4204;43.004;23.052;2023-10-31T02:50:51;93916.78;;;8.84;100.00
8334;BME280;4204;43.004;23.052;2023-10-31T02:53:19;93917.44;;;8.90;100.00
8334;BME280;4204;43.004;23.052;2023-10-31T02:55:47;93918.09;;;8.73;100.00
8334;BME280;4204;43.004;23.052;2023-10-31T02:58:16;93911.78;;;8.83;100.00
8334;BME280;4204;43.004;23.052;2023-10-31T03:00:43;93899.53;;;8.73;100.00
8334;BME280;4204;43.004;23.052;2023-10-31T03:03:11;93910.06;;;8.65;100.00
8334;BME280;4204;43.004;23.052;2023-10-31T03:05:39;93909.25;;;8.78;100.00
8334;BME280;4204;43.004;23.052;2023-10-31T03:08:06;93910.84;;;8.65;100.00
8334;BME280;4204;43.004;23.052;2023-10-31T03:10:38;93911.22;;;8.72;100.00
8334;BME280;4204;43.004;23.052;2023-10-31T03:13:06;93902.97;;;8.74;100.00
8334;BME280;4204;43.004;23.052;2023-10-31T03:15:35;93911.59;;;8.79;100.00
8334;BME280;4204;43.004;23.052;2023-10-31T03:18:02;93898.06;;;8.67;100.00
8334;BME280;4204;43.004;23.052;2023-10-31T03:20:30;93889.22;;;8.72;100.00
8334;BME280;4204;43.004;23.052;2023-10-31T03:22:58;93892.13;;;8.48;100.00
8334;BME280;4204;43.004;23.052;2023-10-31T03:25:25;93881.94;;;8.28;100.00
8334;BME280;4204;43.004;23.052;2023-10-31T03:27:53;93878.41;;;8.33;100.00
8334;BME280;4204;43.004;23.052;2023-10-31T03:30:21;93886.03;;;8.48;100.00
8334;BME280;4204;43.004;23.052;2023-10-31T03:32:51;93876.50;;;8.47;100.00
8334;BME280;4204;43.004;23.052;2023-10-31T03:35:18;93878.19;;;8.56;100.00
8334;BME280;4204;43.004;23.052;2023-10-31T03:37:47;93873.53;;;8.62;100.00
8334;BME280;4204;43.004;23.052;2023-10-31T03:40:14;93871.75;;;8.71;100.00
8334;BME280;4204;43.004;23.052;2023-10-31T03:42:42;93862.28;;;8.56;100.00
8334;BME280;4204;43.004;23.052;2023-10-31T03:45:10;93879.25;;;8.55;100.00
8334;BME280;4204;43.004;23.052;2023-10-31T03:47:38;93868.69;;;8.28;100.00
8334;BME280;4204;43.004;23.052;2023-10-31T03:50:09;93878.09;;;8.48;100.00
8334;BME280;4204;43.004;23.052;2023-10-31T03:52:37;93861.72;;;8.46;100.00
8334;BME280;4204;43.004;23.052;2023-10-31T03:55:05;93862.84;;;8.53;100.00
8334;BME280;4204;43.004;23.052;2023-10-31T03:57:33;93870.53;;;8.41;100.00
8334;BME280;4204;43.004;23.052;2023-10-31T04:00:01;93862.59;;;8.41;100.00
8334;BME280;4204;43.004;23.052;2023-10-31T04:02:39;93853.00;;;8.32;100.00
8334;BME280;4204;43.004;23.052;2023-10-31T04:05:09;93861.97;;;8.58;100.00
8334;BME280;4204;43.004;23.052;2023-10-31T04:07:37;93868.69;;;8.42;100.00
8334;BME280;4204;43.004;23.052;2023-10-31T04:10:06;93870.72;;;8.58;100.00
8334;BME280;4204;43.004;23.052;2023-10-31T04:12:34;93872.81;;;8.34;100.00
8334;BME280;4204;43.004;23.052;2023-10-31T04:15:03;93870.47;;;8.33;100.00
8334;BME280;4204;43.004;23.052;2023-10-31T04:17:31;93877.03;;;8.08;100.00
8334;BME280;4204;43.004;23.052;2023-10-31T04:19:59;93880.88;;;8.29;100.00
8334;BME280;4204;43.004;23.052;2023-10-31T04:22:28;93875.09;;;8.63;100.00
8334;BME280;4204;43.004;23.052;2023-10-31T04:24:55;93872.19;;;8.51;100.00
8334;BME280;4204;43.004;23.052;2023-10-31T04:27:23;93860.16;;;8.31;100.00
8334;BME280;4204;43.004;23.052;2023-10-31T04:29:51;93866.31;;;8.54;100.00
8334;BME280;4204;43.004;23.052;2023-10-31T04:32:18;93865.34;;;8.36;100.00
8334;BME280;4204;43.004;23.052;2023-10-31T04:34:46;93872.78;;;8.48;100.00
8334;BME280;4204;43.004;23.052;2023-10-31T04:37:14;93880.78;;;8.70;100.00
8334;BME280;4204;43.004;23.052;2023-10-31T04:39:43;93883.19;;;8.58;100.00
8334;BME280;4204;43.004;23.052;2023-10-31T04:42:10;93885.91;;;8.53;100.00
8334;BME280;4204;43.004;23.052;2023-10-31T04:44:38;93888.28;;;8.54;100.00
8334;BME280;4204;43.004;23.052;2023-10-31T04:47:06;93885.97;;;8.39;100.00
8334;BME280;4204;43.004;23.052;2023-10-31T04:49:34;93876.25;;;8.48;100.00
8334;BME280;4204;43.004;23.052;2023-10-31T04:52:03;93875.22;;;8.44;100.00
8334;BME280;4204;43.004;23.052;2023-10-31T04:54:31;93876.91;;;8.40;100.00
8334;BME280;4204;43.004;23.052;2023-10-31T04:57:00;93873.50;;;8.40;100.00
8334;BME280;4204;43.004;23.052;2023-10-31T04:59:28;93869.44;;;8.56;100.00
8334;BME280;4204;43.004;23.052;2023-10-31T05:01:55;93874.75;;;8.56;100.00
8334;BME280;4204;43.004;23.052;2023-10-31T05:04:23;93884.94;;;8.49;100.00
8334;BME280;4204;43.004;23.052;2023-10-31T05:06:50;93881.81;;;8.47;100.00
8334;BME280;4204;43.004;23.052;2023-10-31T05:09:18;93885.91;;;8.53;100.00
8334;BME280;4204;43.004;23.052;2023-10-31T05:11:46;93885.97;;;8.26;100.00
8334;BME280;4204;43.004;23.052;2023-10-31T05:14:15;93883.13;;;8.36;100.00
8334;BME280;4204;43.004;23.052;2023-10-31T05:16:43;93880.47;;;8.36;100.00
8334;BME280;4204;43.004;23.052;2023-10-31T05:19:11;93887.31;;;8.37;100.00
8334;BME280;4204;43.004;23.052;2023-10-31T05:21:39;93888.09;;;8.24;100.00
8334;BME280;4204;43.004;23.052;2023-10-31T05:24:07;93887.72;;;8.16;100.00
8334;BME280;4204;43.004;23.052;2023-10-31T05:26:35;93890.19;;;8.27;100.00
8334;BME280;4204;43.004;23.052;2023-10-31T05:29:03;93906.97;;;8.36;100.00
8334;BME280;4204;43.004;23.052;2023-10-31T05:31:32;93901.44;;;8.59;100.00
8334;BME280;4204;43.004;23.052;2023-10-31T05:34:00;93886.06;;;8.34;100.00
8334;BME280;4204;43.004;23.052;2023-10-31T05:36:27;93904.00;;;8.51;100.00
8334;BME280;4204;43.004;23.052;2023-10-31T05:38:55;93905.69;;;8.33;100.00
8334;BME280;4204;43.004;23.052;2023-10-31T05:41:23;93908.31;;;8.47;100.00
8334;BME280;4204;43.004;23.052;2023-10-31T05:43:50;93909.19;;;8.42;100.00
8334;BME280;4204;43.004;23.052;2023-10-31T05:46:18;93917.34;;;8.59;100.00
8334;BME280;4204;43.004;23.052;2023-10-31T05:48:47;93914.19;;;8.71;100.00
8334;BME280;4204;43.004;23.052;2023-10-31T05:51:16;93916.19;;;8.52;100.00
8334;BME280;4204;43.004;23.052;2023-10-31T05:53:46;93919.03;;;8.42;100.00
8334;BME280;4204;43.004;23.052;2023-10-31T05:56:15;93917.38;;;8.46;100.00
8334;BME280;4204;43.004;23.052;2023-10-31T05:58:43;93917.19;;;8.29;100.00
8334;BME280;4204;43.004;23.052;2023-10-31T06:01:11;93913.16;;;8.31;100.00
8334;BME280;4204;43.004;23.052;2023-10-31T06:03:41;93908.22;;;8.52;100.00
8334;BME280;4204;43.004;23.052;2023-10-31T06:06:11;93903.84;;;8.69;100.00
8334;BME280;4204;43.004;23.052;2023-10-31T06:08:39;93917.25;;;8.64;100.00
8334;BME280;4204;43.004;23.052;2023-10-31T06:11:07;93915.97;;;8.62;100.00
8334;BME280;4204;43.004;23.052;2023-10-31T06:13:35;93909.38;;;8.59;100.00
8334;BME280;4204;43.004;23.052;2023-10-31T06:16:03;93906.19;;;8.84;100.00
8334;BME280;4204;43.004;23.052;2023-10-31T06:18:31;93907.59;;;9.04;100.00
8334;BME280;4204;43.004;23.052;2023-10-31T06:20:59;93903.38;;;9.25;100.00
8334;BME280;4204;43.004;23.052;2023-10-31T06:23:28;93915.19;;;9.63;100.00
8334;BME280;4204;43.004;23.052;2023-10-31T06:25:56;93909.75;;;10.08;100.00
8334;BME280;4204;43.004;23.052;2023-10-31T06:28:24;93916.91;;;10.29;100.00
8334;BME280;4204;43.004;23.052;2023-10-31T06:30:52;93911.97;;;10.53;100.00
8334;BME280;4204;43.004;23.052;2023-10-31T06:33:21;93909.03;;;10.72;100.00
8334;BME280;4204;43.004;23.052;2023-10-31T06:35:51;93905.78;;;10.75;100.00
8334;BME280;4204;43.004;23.052;2023-10-31T06:38:20;93907.34;;;10.85;100.00
8334;BME280;4204;43.004;23.052;2023-10-31T06:40:49;93915.97;;;11.16;100.00
8334;BME280;4204;43.004;23.052;2023-10-31T06:43:17;93911.91;;;11.44;100.00
8334;BME280;4204;43.004;23.052;2023-10-31T06:45:45;93903.03;;;11.95;100.00
8334;BME280;4204;43.004;23.052;2023-10-31T06:48:16;93901.69;;;12.18;100.00
8334;BME280;4204;43.004;23.052;2023-10-31T06:50:44;93909.91;;;12.42;100.00
8334;BME280;4204;43.004;23.052;2023-10-31T06:53:12;93904.69;;;12.75;100.00
8334;BME280;4204;43.004;23.052;2023-10-31T06:55:39;93897.59;;;12.99;100.00
8334;BME280;4204;43.004;23.052;2023-10-31T06:58:08;93892.22;;;13.29;100.00
8334;BME280;4204;43.004;23.052;2023-10-31T07:00:36;93885.19;;;13.45;100.00
8334;BME280;4204;43.004;23.052;2023-10-31T07:03:05;93897.19;;;13.71;100.00
8334;BME280;4204;43.004;23.052;2023-10-31T07:05:35;93897.16;;;14.04;100.00
8334;BME280;4204;43.004;23.052;2023-10-31T07:08:02;93894.34;;;14.33;100.00
8334;BME280;4204;43.004;23.052;2023-10-31T07:10:31;93893.00;;;14.39;100.00
8334;BME280;4204;43.004;23.052;2023-10-31T07:12:59;93899.47;;;14.63;100.00
8334;BME280;4204;43.004;23.052;2023-10-31T07:15:28;93903.47;;;14.81;100.00
8334;BME280;4204;43.004;23.052;2023-10-31T07:17:56;93905.75;;;15.06;100.00
8334;BME280;4204;43.004;23.052;2023-10-31T07:20:23;93903.13;;;15.34;100.00
8334;BME280;4204;43.004;23.052;2023-10-31T07:22:51;93897.97;;;15.53;100.00
8334;BME280;4204;43.004;23.052;2023-10-31T07:25:19;93894.16;;;15.82;100.00
8334;BME280;4204;43.004;23.052;2023-10-31T07:27:47;93898.00;;;16.12;100.00
8334;BME280;4204;43.004;23.052;2023-10-31T07:30:15;93900.78;;;16.31;100.00
8334;BME280;4204;43.004;23.052;2023-10-31T07:32:44;93897.94;;;16.55;100.00
8334;BME280;4204;43.004;23.052;2023-10-31T07:35:12;93883.84;;;16.43;100.00
8334;BME280;4204;43.004;23.052;2023-10-31T07:37:39;93890.50;;;16.49;100.00
8334;BME280;4204;43.004;23.052;2023-10-31T07:40:07;93885.56;;;16.66;100.00
8334;BME280;4204;43.004;23.052;2023-10-31T07:42:35;93883.09;;;16.92;100.00
8334;BME280;4204;43.004;23.052;2023-10-31T07:45:03;93880.53;;;17.15;100.00
8334;BME280;4204;43.004;23.052;2023-10-31T07:47:31;93887.91;;;17.37;100.00
8334;BME280;4204;43.004;23.052;2023-10-31T07:50:00;93890.66;;;17.56;100.00
8334;BME280;4204;43.004;23.052;2023-10-31T07:52:28;93889.66;;;17.64;100.00
8334;BME280;4204;43.004;23.052;2023-10-31T07:54:56;93884.38;;;17.71;100.00
8334;BME280;4204;43.004;23.052;2023-10-31T07:57:24;93882.06;;;17.70;100.00
8334;BME280;4204;43.004;23.052;2023-10-31T07:59:52;93877.09;;;17.72;100.00
8334;BME280;4204;43.004;23.052;2023-10-31T08:02:20;93874.00;;;17.70;100.00
8334;BME280;4204;43.004;23.052;2023-10-31T08:04:47;93863.44;;;17.81;100.00
8334;BME280;4204;43.004;23.052;2023-10-31T08:07:16;93854.72;;;17.87;100.00
8334;BME280;4204;43.004;23.052;2023-10-31T08:09:44;93855.75;;;18.02;100.00
8334;BME280;4204;43.004;23.052;2023-10-31T08:12:12;93848.28;;;18.14;100.00
8334;BME280;4204;43.004;23.052;2023-10-31T08:14:41;93847.03;;;18.31;100.00
8334;BME280;4204;43.004;23.052;2023-10-31T08:17:08;93849.44;;;18.39;100.00
8334;BME280;4204;43.004;23.052;2023-10-31T08:19:36;93834.69;;;18.52;100.00
8334;BME280;4204;43.004;23.052;2023-10-31T08:22:04;93837.97;;;18.65;100.00
8334;BME280;4204;43.004;23.052;2023-10-31T08:24:33;93827.34;;;18.76;100.00
8334;BME280;4204;43.004;23.052;2023-10-31T08:27:03;93825.19;;;18.85;100.00
8334;BME280;4204;43.004;23.052;2023-10-31T08:29:32;93824.84;;;18.90;100.00
8334;BME280;4204;43.004;23.052;2023-10-31T08:31:59;93812.47;;;18.85;100.00
8334;BME280;4204;43.004;23.052;2023-10-31T08:34:27;93813.91;;;18.79;100.00
8334;BME280;4204;43.004;23.052;2023-10-31T08:36:55;93812.97;;;18.94;100.00
8334;BME280;4204;43.004;23.052;2023-10-31T08:39:23;93805.69;;;18.95;100.00
8334;BME280;4204;43.004;23.052;2023-10-31T08:41:53;93805.72;;;18.98;100.00
8334;BME280;4204;43.004;23.052;2023-10-31T08:44:21;93797.41;;;18.81;100.00
8334;BME280;4204;43.004;23.052;2023-10-31T08:46:49;93798.34;;;18.66;100.00
8334;BME280;4204;43.004;23.052;2023-10-31T08:49:17;93794.22;;;18.75;100.00
8334;BME280;4204;43.004;23.052;2023-10-31T08:51:45;93791.13;;;18.73;100.00
8334;BME280;4204;43.004;23.052;2023-10-31T08:54:13;93784.69;;;18.81;100.00
8334;BME280;4204;43.004;23.052;2023-10-31T08:56:41;93773.75;;;18.97;100.00
8334;BME280;4204;43.004;23.052;2023-10-31T08:59:10;93780.25;;;19.25;100.00
8334;BME280;4204;43.004;23.052;2023-10-31T09:01:37;93777.84;;;19.47;100.00
8334;BME280;4204;43.004;23.052;2023-10-31T09:04:07;93764.16;;;19.66;100.00
8334;BME280;4204;43.004;23.052;2023-10-31T09:06:35;93765.00;;;19.73;100.00
8334;BME280;4204;43.004;23.052;2023-10-31T09:09:03;93763.13;;;19.77;100.00
8334;BME280;4204;43.004;23.052;2023-10-31T09:11:31;93767.16;;;19.57;100.00
8334;BME280;4204;43.004;23.052;2023-10-31T09:13:59;93754.53;;;19.68;100.00
8334;BME280;4204;43.004;23.052;2023-10-31T09:16:28;93753.56;;;19.87;100.00
8334;BME280;4204;43.004;23.052;2023-10-31T09:18:56;93745.13;;;19.92;100.00
8334;BME280;4204;43.004;23.052;2023-10-31T09:21:23;93745.28;;;20.09;100.00
8334;BME280;4204;43.004;23.052;2023-10-31T09:23:51;93749.28;;;20.26;100.00
8334;BME280;4204;43.004;23.052;2023-10-31T09:26:19;93745.06;;;20.25;100.00
8334;BME280;4204;43.004;23.052;2023-10-31T09:28:47;93733.53;;;20.35;100.00
8334;BME280;4204;43.004;23.052;2023-10-31T09:31:16;93730.06;;;20.38;100.00
8334;BME280;4204;43.004;23.052;2023-10-31T09:33:46;93729.66;;;20.29;100.00
8334;BME280;4204;43.004;23.052;2023-10-31T09:36:14;93723.13;;;20.34;100.00
8334;BME280;4204;43.004;23.052;2023-10-31T09:38:42;93716.63;;;20.49;100.00
8334;BME280;4204;43.004;23.052;2023-10-31T09:41:09;93709.00;;;20.61;100.00
8334;BME280;4204;43.004;23.052;2023-10-31T09:43:37;93702.38;;;20.52;100.00
8334;BME280;4204;43.004;23.052;2023-10-31T09:46:05;93696.56;;;20.46;100.00
8334;BME280;4204;43.004;23.052;2023-10-31T09:48:33;93700.13;;;20.61;100.00
8334;BME280;4204;43.004;23.052;2023-10-31T09:51:04;93693.25;;;20.77;100.00
8334;BME280;4204;43.004;23.052;2023-10-31T09:53:34;93691.25;;;20.64;100.00
8334;BME280;4204;43.004;23.052;2023-10-31T09:56:06;93689.75;;;20.70;100.00
8334;BME280;4204;43.004;23.052;2023-10-31T09:58:35;93685.13;;;20.70;100.00
8334;BME280;4204;43.004;23.052;2023-10-31T10:01:03;93684.34;;;20.73;100.00
8334;BME280;4204;43.004;23.052;2023-10-31T10:03:31;93676.31;;;20.87;100.00
8334;BME280;4204;43.004;23.052;2023-10-31T10:05:59;93671.25;;;20.82;100.00
8334;BME280;4204;43.004;23.052;2023-10-31T10:08:28;93661.63;;;20.85;100.00
8334;BME280;4204;43.004;23.052;2023-10-31T10:10:56;93655.88;;;20.93;100.00
8334;BME280;4204;43.004;23.052;2023-10-31T10:13:24;93644.25;;;20.89;100.00
8334;BME280;4204;43.004;23.052;2023-10-31T10:15:52;93649.66;;;20.89;100.00
8334;BME280;4204;43.004;23.052;2023-10-31T10:18:31;93644.34;;;21.07;100.00
8334;BME280;4204;43.004;23.052;2023-10-31T10:21:00;93641.22;;;21.02;100.00
8334;BME280;4204;43.004;23.052;2023-10-31T10:23:29;93640.50;;;21.15;100.00
8334;BME280;4204;43.004;23.052;2023-10-31T10:25:58;93642.81;;;21.13;100.00
8334;BME280;4204;43.004;23.052;2023-10-31T10:28:26;93629.66;;;21.12;100.00
8334;BME280;4204;43.004;23.052;2023-10-31T10:30:55;93619.63;;;21.19;100.00
8334;BME280;4204;43.004;23.052;2023-10-31T10:33:23;93621.94;;;21.14;100.00
8334;BME280;4204;43.004;23.052;2023-10-31T10:35:51;93618.88;;;21.19;100.00
8334;BME280;4204;43.004;23.052;2023-10-31T10:38:19;93610.78;;;21.19;100.00
8334;BME280;4204;43.004;23.052;2023-10-31T10:40:49;93601.47;;;21.20;100.00
8334;BME280;4204;43.004;23.052;2023-10-31T10:43:20;93611.53;;;21.26;100.00
8334;BME280;4204;43.004;23.052;2023-10-31T10:45:53;93605.75;;;21.35;100.00
8334;BME280;4204;43.004;23.052;2023-10-31T10:48:23;93611.16;;;21.28;100.00
8334;BME280;4204;43.004;23.052;2023-10-31T10:50:57;93599.56;;;21.45;100.00
8334;BME280;4204;43.004;23.052;2023-10-31T10:53:30;93605.75;;;21.52;100.00
8334;BME280;4204;43.004;23.052;2023-10-31T10:56:08;93593.41;;;21.41;100.00
8334;BME280;4204;43.004;23.052;2023-10-31T10:58:44;93583.72;;;21.40;100.00
8334;BME280;4204;43.004;23.052;2023-10-31T11:01:13;93578.69;;;21.38;100.00
8334;BME280;4204;43.004;23.052;2023-10-31T11:03:41;93574.44;;;21.48;100.00
8334;BME280;4204;43.004;23.052;2023-10-31T11:06:09;93578.31;;;21.36;100.00
8334;BME280;4204;43.004;23.052;2023-10-31T11:08:37;93558.97;;;21.34;100.00
8334;BME280;4204;43.004;23.052;2023-10-31T11:11:07;93555.88;;;21.50;100.00
8334;BME280;4204;43.004;23.052;2023-10-31T11:13:35;93547.78;;;21.43;100.00
8334;BME280;4204;43.004;23.052;2023-10-31T11:16:11;93549.34;;;21.47;100.00
8334;BME280;4204;43.004;23.052;2023-10-31T11:18:41;93539.25;;;21.48;100.00
8334;BME280;4204;43.004;23.052;2023-10-31T11:21:09;93535.03;;;21.54;100.00
8334;BME280;4204;43.004;23.052;2023-10-31T11:23:37;93540.03;;;21.48;100.00
8334;BME280;4204;43.004;23.052;2023-10-31T11:26:08;93535.00;;;21.57;100.00
8334;BME280;4204;43.004;23.052;2023-10-31T11:28:36;93537.34;;;21.45;100.00
8334;BME280;4204;43.004;23.052;2023-10-31T11:31:03;93542.38;;;21.43;100.00
8334;BME280;4204;43.004;23.052;2023-10-31T11:33:38;93535.78;;;21.54;100.00
8334;BME280;4204;43.004;23.052;2023-10-31T11:36:07;93530.38;;;21.54;100.00
8334;BME280;4204;43.004;23.052;2023-10-31T11:38:36;93530.75;;;21.60;100.00
8334;BME280;4204;43.004;23.052;2023-10-31T11:41:05;93526.13;;;21.57;100.00
8334;BME280;4204;43.004;23.052;2023-10-31T11:43:52;93521.06;;;21.73;100.00
8334;BME280;4204;43.004;23.052;2023-10-31T11:46:22;93516.06;;;21.68;100.00
8334;BME280;4204;43.004;23.052;2023-10-31T11:48:51;93513.72;;;21.73;100.00
8334;BME280;4204;43.004;23.052;2023-10-31T11:51:19;93503.66;;;21.67;100.00
8334;BME280;4204;43.004;23.052;2023-10-31T11:53:48;93496.69;;;21.73;100.00
8334;BME280;4204;43.004;23.052;2023-10-31T11:56:20;93475.41;;;21.75;100.00
8334;BME280;4204;43.004;23.052;2023-10-31T11:59:02;93466.91;;;21.73;100.00
8334;BME280;4204;43.004;23.052;2023-10-31T12:01:31;93477.72;;;21.87;100.00
8334;BME280;4204;43.004;23.052;2023-10-31T12:03:58;93474.25;;;21.83;100.00
8334;BME280;4204;43.004;23.052;2023-10-31T12:06:26;93475.00;;;22.01;100.00
8334;BME280;4204;43.004;23.052;2023-10-31T12:08:59;93464.88;;;22.12;100.00
8334;BME280;4204;43.004;23.052;2023-10-31T12:11:27;93468.34;;;22.16;100.00
8334;BME280;4204;43.004;23.052;2023-10-31T12:13:57;93457.50;;;22.23;100.00
8334;BME280;4204;43.004;23.052;2023-10-31T12:16:28;93470.25;;;22.26;100.00
8334;BME280;4204;43.004;23.052;2023-10-31T12:18:57;93452.03;;;22.34;100.00
8334;BME280;4204;43.004;23.052;2023-10-31T12:21:38;93447.72;;;22.43;100.00
8334;BME280;4204;43.004;23.052;2023-10-31T12:24:07;93444.63;;;22.41;100.00
8334;BME280;4204;43.004;23.052;2023-10-31T12:26:36;93440.00;;;22.38;100.00
8334;BME280;4204;43.004;23.052;2023-10-31T12:29:11;93444.63;;;22.45;100.00
8334;BME280;4204;43.004;23.052;2023-10-31T12:31:42;93441.88;;;22.48;100.00
8334;BME280;4204;43.004;23.052;2023-10-31T12:34:10;93439.91;;;22.52;100.00
8334;BME280;4204;43.004;23.052;2023-10-31T12:36:38;93437.66;;;22.44;100.00
8334;BME280;4204;43.004;23.052;2023-10-31T12:39:08;93438.44;;;22.44;100.00
8334;BME280;4204;43.004;23.052;2023-10-31T12:41:38;93445.00;;;22.47;100.00
8334;BME280;4204;43.004;23.052;2023-10-31T12:44:07;93444.63;;;22.41;100.00
8334;BME280;4204;43.004;23.052;2023-10-31T12:46:39;93446.94;;;22.46;100.00
8334;BME280;4204;43.004;23.052;2023-10-31T12:49:12;93449.25;;;22.44;100.00
8334;BME280;4204;43.004;23.052;2023-10-31T12:52:05;93446.56;;;22.41;100.00
8334;BME280;4204;43.004;23.052;2023-10-31T12:54:34;93458.63;;;22.29;100.00
8334;BME280;4204;43.004;23.052;2023-10-31T12:57:02;93454.75;;;22.30;100.00
8334;BME280;4204;43.004;23.052;2023-10-31T12:59:32;93447.75;;;22.36;100.00
8334;BME280;4204;43.004;23.052;2023-10-31T13:02:00;93433.34;;;22.50;100.00
8334;BME280;4204;43.004;23.052;2023-10-31T13:04:31;93438.78;;;22.50;100.00
8334;BME280;4204;43.004;23.052;2023-10-31T13:06:59;93443.78;;;22.51;100.00
8334;BME280;4204;43.004;23.052;2023-10-31T13:09:29;93448.41;;;22.62;100.00
8334;BME280;4204;43.004;23.052;2023-10-31T13:11:58;93451.50;;;22.64;100.00